Time;durP1;ratioP1;P1;durP2;ratioP2;P2;SDS_P1;SDS_P2;PMS_P1;PMS_P2;Temp;Humidity;BMP_temperature;BMP_pressure;BME280_temperature;BME280_humidity;BME280_pressure;Samples;Min_cycle;Max_cycle;Signal;HPM_P1;HPM_P2
2022/07/03 00:00:15;;;;;;;5.70;4.20;;;20.40;99.90;;;20.93;63.88;101658.09;5114942;28;20039;-62
2022/07/03 00:02:43;;;;;;;6.28;4.72;;;20.50;99.90;;;20.94;63.85;101662.56;5114724;28;20131;-64
2022/07/03 00:05:12;;;;;;;5.47;4.43;;;20.50;99.90;;;20.99;63.47;101661.47;5114455;28;20600;-63
2022/07/03 00:07:40;;;;;;;4.85;4.03;;;20.50;99.90;;;21.09;62.74;101664.75;5114911;28;20039;-62
2022/07/03 00:10:10;;;;;;;4.10;3.50;;;20.60;99.90;;;21.15;61.76;101664.53;5114319;28;20499;-62
2022/07/03 00:12:39;;;;;;;5.90;3.15;;;20.60;99.90;;;20.32;60.98;101565.19;5114236;28;20118;-62
2022/07/03 00:15:09;;;;;;;5.00;3.38;;;20.70;99.90;;;21.21;60.52;101659.81;5114704;28;20044;-63
2022/07/03 00:17:38;;;;;;;6.45;3.08;;;20.70;99.90;;;21.24;60.45;101669.56;5114222;28;20485;-62
2022/07/03 00:20:08;;;;;;;6.25;3.30;;;20.70;99.90;;;21.22;60.31;101663.38;5114158;28;20035;-62
2022/07/03 00:22:42;;;;;;;3.22;2.83;;;20.70;99.90;;;21.25;60.28;101669.50;5114695;28;20049;-63
2022/07/03 00:25:13;;;;;;;6.05;2.95;;;20.80;99.90;;;21.29;60.33;101670.31;5114441;28;20047;-62
2022/07/03 00:27:46;;;;;;;6.28;2.80;;;20.80;99.90;;;21.21;60.12;101654.44;5113781;28;20040;-62
2022/07/03 00:30:14;;;;;;;5.60;2.60;;;20.80;99.90;;;21.28;60.06;101658.66;5114375;28;20055;-62
2022/07/03 00:32:43;;;;;;;4.18;2.60;;;20.80;99.90;;;21.25;60.12;101655.19;5113981;28;20078;-62
2022/07/03 00:35:18;;;;;;;3.85;2.60;;;20.80;99.90;;;21.32;60.34;101673.75;5113709;28;20485;-62
2022/07/03 00:37:46;;;;;;;3.42;2.60;;;20.80;99.90;;;21.36;60.06;101672.72;5113969;28;20117;-62
2022/07/03 00:40:15;;;;;;;3.78;2.60;;;20.80;99.90;;;20.93;60.18;101590.84;5114359;28;20047;-62
2022/07/03 00:42:51;;;;;;;5.30;2.85;;;20.80;99.90;;;21.38;60.26;101669.97;5113805;28;20043;-62
2022/07/03 00:45:21;;;;;;;4.90;2.60;;;20.90;99.90;;;21.36;60.48;101669.16;5113810;28;20052;-62
2022/07/03 00:47:50;;;;;;;;;;;20.90;99.90;;;21.33;60.49;101662.06;5114182;28;20067;-62
2022/07/03 00:50:19;;;;;;;4.28;3.15;;;20.90;99.90;;;21.36;60.72;101658.38;5112294;28;19919;-62
2022/07/03 00:52:48;;;;;;;4.85;3.13;;;20.90;99.90;;;21.37;60.95;101658.31;5114261;28;20051;-62
2022/07/03 00:55:19;;;;;;;4.00;2.90;;;20.80;99.90;;;21.38;61.08;101656.50;5113482;28;20074;-63
2022/07/03 00:57:49;;;;;;;;;;;20.90;99.90;;;21.32;61.35;101660.31;5114042;28;20070;-62
2022/07/03 01:00:18;;;;;;;3.67;2.40;;;20.90;99.90;;;21.31;61.37;101657.69;5113540;28;19999;-62
2022/07/03 01:02:54;;;;;;;5.32;3.20;;;20.80;99.90;;;21.32;61.66;101664.81;5113359;28;20045;-63
2022/07/03 01:05:29;;;;;;;4.88;2.80;;;20.80;99.90;;;21.39;61.71;101661.84;5113457;28;20051;-62
2022/07/03 01:08:13;;;;;;;4.30;3.13;;;20.80;99.90;;;21.38;61.83;101660.09;5113557;28;20122;-62
2022/07/03 01:10:52;;;;;;;4.20;2.53;;;20.90;99.90;;;21.44;61.59;101658.97;5113393;28;20081;-63
2022/07/03 01:13:33;;;;;;;4.88;2.88;;;20.90;99.90;;;21.44;61.45;101645.53;5095602;28;20497;-62
2022/07/03 01:16:08;;;;;;;3.28;2.70;;;20.90;99.90;;;21.39;61.46;101639.41;5113697;28;20043;-62
2022/07/03 01:18:43;;;;;;;6.47;2.95;;;21.00;99.90;;;21.26;61.54;101620.16;5113758;28;20046;-62
2022/07/03 01:21:36;;;;;;;4.72;2.95;;;21.00;99.90;;;21.41;62.13;101653.69;5113374;28;20047;-62
2022/07/03 01:24:40;;;;;;;6.35;3.38;;;20.90;99.90;;;21.40;62.16;101646.56;5113342;28;20051;-62
2022/07/03 01:27:17;;;;;;;3.63;2.83;;;20.90;99.90;;;21.37;62.31;101649.34;5113285;28;20061;-62
2022/07/03 01:29:59;;;;;;;4.95;3.00;;;20.90;99.90;;;21.10;62.55;101612.69;5112998;28;20052;-62
2022/07/03 01:32:34;;;;;;;3.80;2.70;;;20.90;99.90;;;21.32;62.82;101659.41;5113777;28;20126;-64
2022/07/03 01:35:03;;;;;;;5.38;2.97;;;20.80;99.90;;;21.38;62.70;101651.13;5113076;28;20043;-62
2022/07/03 01:37:35;;;;;;;4.50;2.50;;;20.90;99.90;;;21.36;62.70;101647.63;5113467;28;20140;-62
2022/07/03 01:40:06;;;;;;;4.97;3.00;;;20.90;99.90;;;21.35;62.78;101648.56;5117392;28;20452;-62
2022/07/03 01:42:38;;;;;;;;;;;20.80;99.90;;;21.36;62.58;101651.19;5118017;28;20377;-62
2022/07/03 01:45:11;;;;;;;6.85;3.40;;;20.90;99.90;;;21.35;62.70;101648.56;5117556;28;20342;-62
2022/07/03 01:47:43;;;;;;;4.32;2.95;;;20.90;99.90;;;21.36;62.80;101644.91;5117149;28;20071;-62
2022/07/03 01:50:15;;;;;;;5.70;2.88;;;20.90;99.90;;;21.38;62.72;101640.34;5117180;28;20073;-62
2022/07/03 01:52:46;;;;;;;8.27;3.10;;;20.90;99.90;;;21.37;62.90;101647.53;5117629;28;20093;-62
2022/07/03 01:55:15;;;;;;;4.53;3.13;;;20.80;99.90;;;21.26;62.93;101635.41;5116959;28;20064;-62
2022/07/03 01:57:48;;;;;;;5.90;2.65;;;20.90;99.90;;;21.41;62.98;101638.44;5116967;28;20039;-62
2022/07/03 02:00:20;;;;;;;6.53;3.33;;;20.90;99.90;;;21.44;62.87;101634.75;5116960;28;20459;-62
2022/07/03 02:02:58;;;;;;;3.88;2.63;;;20.90;99.90;;;21.33;62.87;101620.81;5117127;28;20043;-62
2022/07/03 02:05:43;;;;;;;6.47;3.08;;;20.90;99.90;;;21.41;63.05;101640.22;5117087;28;20043;-62
2022/07/03 02:08:37;;;;;;;4.38;3.00;;;20.90;99.90;;;21.30;63.49;101620.91;5116166;28;20063;-62
2022/07/03 02:11:16;;;;;;;5.88;3.13;;;20.90;99.90;;;21.20;63.86;101614.97;5116754;28;20059;-62
2022/07/03 02:14:04;;;;;;;5.55;3.00;;;20.80;99.90;;;21.27;64.10;101631.81;5117000;28;20074;-62
2022/07/03 02:16:51;;;;;;;5.00;3.17;;;20.80;99.90;;;21.31;64.26;101622.69;5116685;28;20043;-63
2022/07/03 02:19:29;;;;;;;5.28;2.67;;;20.80;99.90;;;21.29;64.29;101614.66;5098546;28;20043;-62
2022/07/03 02:21:58;;;;;;;10.00;3.33;;;20.80;99.90;;;21.25;64.63;101622.91;5116458;28;20040;-62
2022/07/03 02:24:29;;;;;;;5.43;2.83;;;20.80;99.90;;;21.26;64.80;101616.56;5116320;28;20374;-62
2022/07/03 02:27:04;;;;;;;5.43;3.28;;;20.80;99.90;;;21.22;65.16;101614.94;5098447;28;20043;-62
2022/07/03 02:29:37;;;;;;;4.85;2.90;;;20.70;99.90;;;21.20;65.28;101614.09;5116465;28;20489;-62
2022/07/03 02:32:12;;;;;;;7.97;3.47;;;20.70;99.90;;;21.16;65.58;101602.56;5116379;28;20036;-62
2022/07/03 02:34:48;;;;;;;7.43;3.20;;;20.60;99.90;;;21.16;65.67;101613.34;5116269;28;20058;-63
2022/07/03 02:37:20;;;;;;;5.43;3.20;;;20.70;99.90;;;21.06;65.76;101601.13;5116882;28;20070;-62
2022/07/03 02:39:54;;;;;;;8.23;3.33;;;20.70;99.90;;;21.20;65.77;101614.09;5116605;28;20477;-62
2022/07/03 02:42:31;;;;;;;8.95;3.25;;;20.70;99.90;;;21.23;65.58;101616.69;5116565;28;20059;-62
2022/07/03 02:45:05;;;;;;;7.72;3.30;;;20.70;99.90;;;21.18;65.83;101621.34;5116125;28;20067;-62
2022/07/03 02:47:46;;;;;;;8.20;3.53;;;20.70;99.90;;;21.15;65.93;101625.06;5116077;28;20043;-62
2022/07/03 02:50:22;;;;;;;8.40;3.85;;;20.60;99.90;;;21.11;66.26;101635.97;5115472;28;20039;-62
2022/07/03 02:53:01;;;;;;;6.10;3.65;;;20.60;99.90;;;21.09;66.53;101627.06;5116068;28;20527;-62
2022/07/03 02:55:43;;;;;;;6.28;3.17;;;20.60;99.90;;;21.10;66.54;101623.47;5115858;28;20116;-62
2022/07/03 02:58:46;;;;;;;6.90;3.67;;;20.60;99.90;;;21.08;66.52;101623.50;5116155;28;20040;-62
2022/07/03 03:01:25;;;;;;;8.60;3.58;;;20.60;99.90;;;21.05;66.45;101626.31;5116097;28;20051;-62
2022/07/03 03:04:09;;;;;;;6.82;3.10;;;20.60;99.90;;;20.98;66.80;101618.47;5116341;28;20046;-62
2022/07/03 03:06:38;;;;;;;12.65;4.25;;;20.50;99.90;;;20.78;66.93;101588.69;5115540;28;20401;-62
2022/07/03 03:09:13;;;;;;;5.55;3.35;;;20.50;99.90;;;20.98;66.89;101627.41;5115785;28;20479;-62
2022/07/03 03:11:45;;;;;;;6.25;3.33;;;20.50;99.90;;;20.69;66.97;101579.16;5115847;28;20047;-62
2022/07/03 03:14:16;;;;;;;6.40;3.22;;;20.50;99.90;;;20.95;67.29;101623.94;5115669;28;20065;-62
2022/07/03 03:16:51;;;;;;;9.05;3.55;;;20.40;99.90;;;20.73;67.41;101596.06;5115183;28;20089;-62
2022/07/03 03:19:23;;;;;;;8.10;3.10;;;20.40;99.90;;;20.80;67.55;101619.09;5115709;28;20420;-63
2022/07/03 03:22:05;;;;;;;8.68;3.60;;;20.30;99.90;;;20.77;67.57;101620.06;5115425;28;20047;-62
2022/07/03 03:24:34;;;;;;;9.02;3.55;;;20.30;99.90;;;20.76;67.39;101620.13;5115657;28;20039;-62
2022/07/03 03:27:04;;;;;;;9.15;3.55;;;20.30;99.90;;;20.75;67.57;101621.09;5115578;28;20048;-63
2022/07/03 03:29:33;;;;;;;9.27;3.67;;;20.30;99.90;;;20.73;67.61;101622.94;5115348;28;20052;-62
2022/07/03 03:32:04;;;;;;;9.13;3.25;;;20.20;99.90;;;20.70;67.78;101615.84;5115121;28;20040;-63
2022/07/03 03:34:33;;;;;;;7.70;3.80;;;20.20;99.90;;;20.52;67.85;101598.53;5115178;28;20120;-63
2022/07/03 03:37:01;;;;;;;7.95;3.65;;;20.20;99.90;;;20.63;67.94;101625.06;5114996;28;20071;-63
2022/07/03 03:39:30;;;;;;;7.07;3.60;;;20.20;99.90;;;20.58;68.11;101619.84;5115003;28;20453;-63
2022/07/03 03:42:01;;;;;;;8.00;3.97;;;20.20;99.90;;;20.39;68.09;101594.50;5114919;28;20434;-63
2022/07/03 03:44:29;;;;;;;11.68;4.63;;;20.10;99.90;;;20.54;68.32;101628.94;5115501;28;20100;-63
2022/07/03 03:46:57;;;;;;;6.10;3.50;;;20.10;99.90;;;20.54;68.37;101625.34;5114839;28;20031;-63
2022/07/03 03:49:28;;;;;;;11.85;4.63;;;20.10;99.90;;;20.55;68.39;101625.31;5115099;28;20126;-62
2022/07/03 03:51:56;;;;;;;11.73;4.05;;;20.10;99.90;;;20.54;68.44;101626.25;5115394;28;20078;-62
2022/07/03 03:54:24;;;;;;;8.35;3.70;;;20.10;99.90;;;20.53;68.58;101624.50;5114711;28;20067;-62
2022/07/03 03:56:52;;;;;;;9.50;3.83;;;20.10;99.90;;;20.53;68.58;101627.19;5114577;28;20093;-62
2022/07/03 03:59:21;;;;;;;11.82;4.38;;;20.00;99.90;;;20.53;68.75;101621.81;5114575;28;20126;-62
2022/07/03 04:01:50;;;;;;;8.05;3.45;;;20.10;99.90;;;20.61;68.51;101627.78;5113662;28;20131;-62
2022/07/03 04:04:19;;;;;;;7.90;3.40;;;20.10;99.90;;;20.64;68.44;101635.75;5114489;28;20067;-62
2022/07/03 04:06:48;;;;;;;6.57;3.65;;;20.10;99.90;;;20.64;68.49;101629.50;5114438;28;20130;-62
2022/07/03 04:09:17;;;;;;;9.07;3.70;;;20.20;99.90;;;20.62;68.58;101632.25;5114731;28;20063;-62
2022/07/03 04:11:45;;;;;;;8.32;3.95;;;20.20;99.90;;;20.64;68.81;101622.31;5114925;28;20283;-62
2022/07/03 04:14:13;;;;;;;6.60;3.78;;;20.10;99.90;;;20.72;68.74;101630.13;5114595;28;20047;-62
2022/07/03 04:16:42;;;;;;;10.20;4.40;;;20.20;99.90;;;20.68;68.74;101632.03;5114461;28;20130;-62
2022/07/03 04:19:10;;;;;;;7.05;3.80;;;20.20;99.90;;;20.65;68.96;101626.75;5114283;28;20046;-62
2022/07/03 04:21:38;;;;;;;7.85;3.90;;;20.20;99.90;;;20.68;69.12;101634.72;5114730;28;20489;-62
2022/07/03 04:24:08;;;;;;;8.63;4.30;;;20.20;99.90;;;20.56;69.11;101608.25;5114703;28;20071;-62
2022/07/03 04:26:37;;;;;;;10.55;4.15;;;20.20;99.90;;;20.71;69.25;101632.88;5114146;28;20040;-62
2022/07/03 04:29:05;;;;;;;6.63;3.97;;;20.20;99.90;;;20.61;69.53;101632.31;5114013;28;20102;-62
2022/07/03 04:31:33;;;;;;;8.60;4.20;;;20.20;99.90;;;20.65;69.59;101634.81;5114221;28;20480;-62
2022/07/03 04:34:02;;;;;;;10.27;4.13;;;20.20;99.90;;;20.62;69.73;101631.34;5114298;28;20043;-62
2022/07/03 04:36:30;;;;;;;7.75;3.60;;;20.20;99.90;;;20.44;70.00;101616.72;5113841;28;20040;-62
2022/07/03 04:38:58;;;;;;;8.57;4.32;;;20.10;99.90;;;20.58;69.96;101641.34;5113836;28;20126;-62
2022/07/03 04:41:28;;;;;;;14.93;4.53;;;20.10;99.90;;;20.62;69.90;101647.50;5114067;28;20126;-62
2022/07/03 04:43:57;;;;;;;8.40;3.95;;;20.10;99.90;;;20.62;69.95;101642.13;5113789;28;20039;-62
2022/07/03 04:46:25;;;;;;;10.27;4.20;;;20.10;99.90;;;20.73;69.77;101644.47;5114337;28;20067;-62
2022/07/03 04:48:53;;;;;;;7.18;3.90;;;20.20;99.90;;;20.82;69.62;101639.66;5113606;28;20035;-62
2022/07/03 04:51:22;;;;;;;7.75;4.10;;;20.20;99.90;;;20.84;69.55;101636.91;5113684;28;20047;-62
2022/07/03 04:53:50;;;;;;;8.85;3.88;;;20.30;99.90;;;20.73;69.76;101615.72;5113898;28;20046;-62
2022/07/03 04:56:18;;;;;;;6.80;4.03;;;20.40;99.90;;;20.85;69.90;101641.38;5113547;28;20118;-62
2022/07/03 04:58:48;;;;;;;7.80;4.20;;;20.40;99.90;;;20.85;70.11;101633.28;5113568;28;20046;-62
2022/07/03 05:01:16;;;;;;;9.60;4.27;;;20.40;99.90;;;20.92;70.16;101645.59;5113888;28;20035;-62
2022/07/03 05:03:45;;;;;;;11.32;4.90;;;20.40;99.90;;;20.78;70.24;101627.22;5113570;28;20040;-62
2022/07/03 05:06:13;;;;;;;11.75;4.55;;;20.50;99.90;;;20.90;70.36;101651.03;5113764;28;20047;-62
2022/07/03 05:08:47;;;;;;;9.73;4.15;;;20.50;99.90;;;20.94;70.50;101651.78;5113537;28;20051;-62
2022/07/03 05:11:15;;;;;;;9.82;4.13;;;20.40;99.90;;;20.98;70.54;101645.38;5114014;28;20081;-62
2022/07/03 05:13:44;;;;;;;14.00;5.32;;;20.50;99.90;;;21.04;70.76;101650.59;5113554;28;20092;-62
2022/07/03 05:16:13;;;;;;;13.52;4.88;;;20.60;99.90;;;21.11;71.03;101657.50;5113293;28;20039;-62
2022/07/03 05:18:41;;;;;;;10.68;4.85;;;20.60;99.90;;;21.17;71.41;101663.56;5113571;28;20040;-62
2022/07/03 05:21:10;;;;;;;9.45;5.00;;;20.70;99.90;;;21.26;71.37;101651.56;5113678;28;20052;-62
2022/07/03 05:23:38;;;;;;;10.48;4.93;;;20.80;99.90;;;21.32;71.37;101659.41;5113545;28;20386;-62
2022/07/03 05:26:06;;;;;;;12.20;5.35;;;20.80;99.90;;;21.33;71.21;101666.56;5113251;28;20404;-62
2022/07/03 05:28:35;;;;;;;9.25;4.93;;;20.80;99.90;;;21.40;71.18;101660.03;5112996;28;20482;-62
2022/07/03 05:31:04;;;;;;;10.43;4.88;;;20.90;99.90;;;21.47;71.24;101665.13;5113229;28;20065;-62
2022/07/03 05:33:34;;;;;;;11.88;4.85;;;21.00;99.90;;;21.46;70.87;101665.19;5113312;28;20071;-62
2022/07/03 05:36:02;;;;;;;12.20;4.97;;;21.00;99.90;;;21.45;71.24;101674.19;5095129;28;20043;-62
2022/07/03 05:41:13;;;;;;;8.27;4.13;;;21.00;99.90;;;21.59;71.24;101663.78;5079120;28;20152;-63
2022/07/03 05:43:42;;;;;;;8.00;4.25;;;21.10;99.90;;;21.65;70.97;101666.28;5113103;28;20126;-63
2022/07/03 05:46:10;;;;;;;9.57;4.82;;;21.10;99.90;;;21.71;70.52;101665.16;5113101;28;20067;-63
2022/07/03 05:48:40;;;;;;;11.18;4.00;;;21.20;99.90;;;21.78;70.40;101670.25;5112863;28;20039;-62
2022/07/03 05:51:09;;;;;;;8.80;3.95;;;21.30;99.90;;;21.81;69.91;101672.88;5113598;28;20075;-63
2022/07/03 05:53:37;;;;;;;8.25;4.20;;;21.30;99.90;;;21.80;69.58;101675.56;5113543;28;20047;-63
2022/07/03 05:56:05;;;;;;;6.68;4.07;;;21.30;99.90;;;21.83;69.40;101673.69;5112938;28;20054;-62
2022/07/03 05:58:34;;;;;;;7.75;3.83;;;21.40;99.90;;;21.89;69.38;101669.91;5113053;28;20130;-63
2022/07/03 06:01:02;;;;;;;12.13;4.85;;;21.40;99.90;;;21.90;69.34;101669.81;5113251;28;20063;-63
2022/07/03 06:03:30;;;;;;;9.05;4.18;;;21.40;99.90;;;21.48;69.00;101593.31;5112875;28;20412;-63
2022/07/03 06:06:01;;;;;;;6.93;4.28;;;21.40;99.90;;;21.95;68.95;101664.28;5113137;28;20050;-63
2022/07/03 06:08:30;;;;;;;11.30;4.57;;;21.40;99.90;;;22.08;68.92;101663.75;5113116;28;20047;-63
2022/07/03 06:11:00;;;;;;;9.90;3.90;;;21.50;99.90;;;22.25;68.89;101660.38;5113104;28;20044;-63
2022/07/03 06:13:28;;;;;;;12.48;4.32;;;21.80;99.90;;;22.31;67.97;101661.00;5112771;28;20028;-63
2022/07/03 06:15:56;;;;;;;7.50;4.05;;;21.80;99.90;;;22.15;68.97;101650.88;5112813;28;20055;-63
2022/07/03 06:18:25;;;;;;;10.02;3.95;;;21.80;99.90;;;22.23;68.46;101673.91;5112983;28;20119;-63
2022/07/03 06:20:53;;;;;;;11.52;4.25;;;21.70;99.90;;;22.14;68.68;101674.25;5112734;28;20112;-63
2022/07/03 06:23:23;;;;;;;11.02;4.13;;;21.70;99.90;;;21.78;68.11;101602.03;5113303;28;20051;-63
2022/07/03 06:26:11;;;;;;;8.75;4.38;;;21.70;99.90;;;22.17;68.48;101681.34;5115308;28;20061;-63
2022/07/03 06:28:39;;;;;;;12.68;4.68;;;21.70;99.90;;;22.07;68.96;101678.13;5116316;28;20047;-63
2022/07/03 06:31:08;;;;;;;7.88;3.67;;;21.60;99.90;;;22.02;68.86;101680.13;5116691;28;20441;-62
2022/07/03 06:33:36;;;;;;;8.10;4.32;;;21.50;99.90;;;22.05;69.14;101673.72;5116319;28;20130;-63
2022/07/03 06:36:05;;;;;;;7.63;4.03;;;21.50;99.90;;;21.97;69.41;101668.66;5116198;28;20168;-63
2022/07/03 06:38:35;;;;;;;6.30;3.67;;;21.50;99.90;;;22.07;69.84;101672.75;5097927;28;20469;-63
2022/07/03 06:41:03;;;;;;;8.87;4.20;;;21.60;99.90;;;22.18;69.75;101661.56;5116067;28;20047;-63
2022/07/03 06:43:31;;;;;;;8.57;3.92;;;21.70;99.90;;;22.30;69.56;101669.13;5115826;28;20815;-63
2022/07/03 06:46:00;;;;;;;6.70;3.60;;;21.80;99.90;;;22.33;68.10;101675.31;5097839;28;20074;-63
2022/07/03 06:48:28;;;;;;;9.98;4.13;;;21.80;99.90;;;22.35;67.63;101670.72;5116197;28;20035;-63
2022/07/03 06:50:57;;;;;;;9.85;3.92;;;21.90;99.90;;;22.37;67.16;101679.63;5097878;28;20052;-63
2022/07/03 06:53:25;;;;;;;6.65;3.38;;;21.90;99.90;;;22.37;66.60;101679.63;5115777;28;20481;-63
2022/07/03 06:55:55;;;;;;;7.88;4.20;;;21.90;99.90;;;22.36;66.41;101672.47;5115691;28;20109;-63
2022/07/03 06:58:23;;;;;;;7.23;4.23;;;21.90;99.90;;;22.39;66.21;101677.75;5115648;28;20071;-63
2022/07/03 07:00:52;;;;;;;7.82;3.63;;;21.90;99.90;;;22.49;66.53;101680.97;5115534;28;20043;-63
2022/07/03 07:03:20;;;;;;;8.15;4.43;;;22.00;99.90;;;22.52;66.46;101682.63;5115763;28;20045;-65
2022/07/03 07:05:48;;;;;;;10.00;3.97;;;22.00;99.90;;;22.43;65.82;101679.38;5115711;28;20100;-63
2022/07/03 07:08:17;;;;;;;7.03;4.13;;;22.00;99.90;;;22.44;65.70;101686.53;5115701;28;20052;-63
2022/07/03 07:10:48;;;;;;;9.07;4.50;;;22.00;99.90;;;22.44;66.18;101691.94;5115674;28;20465;-63
2022/07/03 07:13:18;;;;;;;8.38;4.05;;;21.90;99.90;;;22.44;65.83;101686.53;5115971;28;20070;-62
2022/07/03 07:15:46;;;;;;;6.07;4.30;;;22.00;99.90;;;22.47;65.10;101681.94;5115421;28;20043;-63
2022/07/03 07:18:15;;;;;;;8.45;4.03;;;22.00;99.90;;;22.52;64.62;101694.31;5115195;28;20118;-63
2022/07/03 07:20:43;;;;;;;7.22;4.07;;;22.10;99.90;;;22.62;64.53;101694.84;5115542;28;20038;-63
2022/07/03 07:23:11;;;;;;;7.25;3.72;;;22.10;99.90;;;22.66;63.90;101694.66;5115046;28;20493;-63
2022/07/03 07:25:39;;;;;;;9.20;4.30;;;22.20;99.90;;;22.49;65.52;101705.22;5114900;28;20130;-63
2022/07/03 07:28:11;;;;;;;9.15;4.15;;;22.00;99.90;;;22.68;65.06;101706.28;5114998;28;20065;-65
2022/07/03 07:30:41;;;;;;;7.57;3.80;;;22.20;99.90;;;22.65;64.57;101708.22;5115261;28;20135;-61
2022/07/03 07:33:10;;;;;;;7.18;4.38;;;22.20;99.90;;;22.68;64.72;101708.97;5114953;28;20040;-62
2022/07/03 07:35:38;;;;;;;7.53;3.85;;;22.20;99.90;;;22.65;63.81;101710.94;5114675;28;20066;-63
2022/07/03 07:38:07;;;;;;;7.53;4.35;;;22.20;99.90;;;22.57;64.07;101696.88;5114811;28;20031;-62
2022/07/03 07:40:36;;;;;;;8.35;4.18;;;22.20;99.90;;;22.50;64.45;101717.75;5115166;28;20067;-61
2022/07/03 07:43:05;;;;;;;7.10;3.70;;;22.10;99.90;;;22.52;64.38;101709.59;5114702;28;20075;-64
2022/07/03 07:45:33;;;;;;;7.05;4.25;;;22.00;99.90;;;22.57;64.53;101716.59;5114756;28;20073;-62
2022/07/03 07:48:03;;;;;;;7.95;4.10;;;22.20;99.90;;;22.58;64.39;101715.69;5114638;28;20047;-62
2022/07/03 07:50:32;;;;;;;10.07;4.15;;;22.20;99.90;;;22.63;65.22;101719.06;5096615;28;20109;-61
2022/07/03 07:53:00;;;;;;;7.18;3.97;;;22.20;99.90;;;22.73;64.54;101716.84;5114394;28;20138;-60
2022/07/03 07:55:28;;;;;;;6.03;4.15;;;22.30;99.90;;;22.77;63.40;101726.59;5114440;28;20404;-61
2022/07/03 07:57:56;;;;;;;5.50;3.83;;;22.30;99.90;;;22.72;63.42;101707.03;5114293;28;20046;-61
2022/07/03 08:00:25;;;;;;;6.55;3.70;;;22.40;99.90;;;22.73;63.54;101716.84;5114270;28;20047;-61
2022/07/03 08:05:41;;;;;;;7.78;3.65;;;22.40;99.90;;;23.02;63.31;101716.53;5114851;28;20126;-62
2022/07/03 08:08:12;;;;;;;5.75;3.38;;;22.60;99.90;;;23.01;62.52;101710.28;5114223;28;20123;-61
2022/07/03 08:10:42;;;;;;;5.55;3.60;;;22.70;99.90;;;23.25;62.26;101730.81;5114344;28;20036;-61
2022/07/03 08:13:12;;;;;;;10.88;3.80;;;22.80;99.90;;;23.29;62.46;101736.94;5114469;28;20032;-62
2022/07/03 08:15:41;;;;;;;6.57;3.70;;;22.90;99.90;;;23.21;62.48;101726.47;5113961;28;20547;-64
2022/07/03 08:18:11;;;;;;;6.35;3.10;;;22.80;99.90;;;23.18;62.52;101725.75;5114056;28;20079;-66
2022/07/03 08:20:41;;;;;;;7.45;3.88;;;22.80;99.90;;;23.10;62.45;101722.47;5113949;28;20039;-66
2022/07/03 08:23:09;;;;;;;6.82;3.35;;;22.70;99.90;;;23.22;62.31;101730.94;5114174;28;20043;-65
2022/07/03 08:25:38;;;;;;;6.78;3.33;;;22.80;99.90;;;23.12;61.81;101724.19;5114046;28;20063;-67
2022/07/03 08:28:06;;;;;;;7.88;3.40;;;22.70;99.90;;;23.11;61.77;101729.66;5113902;28;20062;-68
2022/07/03 08:30:35;;;;;;;5.55;3.25;;;22.60;99.90;;;23.17;61.71;101718.59;5114030;28;20054;-68
2022/07/03 08:33:03;;;;;;;7.47;3.28;;;22.70;99.90;;;23.18;62.03;101723.03;5114326;28;20401;-70
2022/07/03 08:35:32;;;;;;;9.20;3.80;;;22.70;99.90;;;23.20;62.15;101723.84;5113936;28;20036;-70
2022/07/03 08:38:01;;;;;;;6.15;3.08;;;22.70;99.90;;;23.17;61.31;101730.25;5113523;28;20043;-67
2022/07/03 08:40:30;;;;;;;6.25;3.20;;;22.70;99.90;;;23.15;61.82;101726.75;5095669;28;20386;-66
2022/07/03 08:43:02;;;;;;;5.18;3.58;;;22.70;99.90;;;23.14;60.62;101714.19;5113630;28;20048;-69
2022/07/03 08:45:31;;;;;;;5.32;3.47;;;22.70;99.90;;;23.19;60.45;101719.38;5113864;28;20075;-67
2022/07/03 08:48:00;;;;;;;7.70;2.65;;;22.70;99.90;;;23.06;61.61;101727.13;5113108;28;20048;-67
2022/07/03 08:50:30;;;;;;;6.28;2.88;;;22.60;99.90;;;22.97;62.81;101705.94;5095433;28;20484;-66
2022/07/03 08:53:03;;;;;;;3.45;3.10;;;22.60;99.90;;;22.82;62.59;101730.84;5113822;28;20051;-66
2022/07/03 08:55:31;;;;;;;5.78;2.85;;;22.30;99.90;;;22.61;63.42;101726.31;5113527;28;20051;-66
2022/07/03 08:58:06;;;;;;;6.43;2.80;;;22.10;99.90;;;22.47;63.81;101723.28;5113470;28;20093;-65
2022/07/03 09:00:34;;;;;;;6.70;3.40;;;22.00;99.90;;;22.46;64.31;101737.69;5095272;28;20485;-66
2022/07/03 09:03:04;;;;;;;4.60;3.10;;;22.00;99.90;;;22.35;64.23;101739.94;5113706;28;20539;-66
2022/07/03 09:05:35;;;;;;;7.50;3.47;;;21.90;99.90;;;22.10;64.72;101707.69;5113662;28;20057;-65
2022/07/03 09:08:08;;;;;;;12.35;3.78;;;21.90;99.90;;;22.11;65.41;101724.72;5113361;28;20648;-66
2022/07/03 09:10:37;;;;;;;6.70;3.35;;;21.80;99.90;;;22.09;65.03;101732.84;5113317;28;20043;-66
2022/07/03 09:13:05;;;;;;;5.63;3.80;;;21.60;99.90;;;22.05;65.20;101730.31;5113228;28;20051;-66
2022/07/03 09:15:34;;;;;;;4.57;2.95;;;21.60;99.90;;;22.12;65.32;101732.75;5113184;28;20053;-67
2022/07/03 09:18:04;;;;;;;5.93;3.47;;;21.70;99.90;;;22.09;65.23;101738.25;5113214;28;20130;-66
2022/07/03 09:20:35;;;;;;;5.85;3.60;;;21.70;99.90;;;22.22;64.82;101734.13;5113451;28;20065;-66
2022/07/03 09:23:12;;;;;;;;;;;21.80;99.90;;;22.07;64.70;101680.84;5113485;28;20048;-66
2022/07/03 09:25:56;;;;;;;5.00;3.72;;;22.00;99.90;;;22.48;64.09;101732.25;5113353;28;20018;-66
2022/07/03 09:28:45;;;;;;;4.72;2.97;;;22.10;99.90;;;22.49;62.88;101743.00;5112997;28;20035;-67
2022/07/03 09:31:16;;;;;;;5.10;3.47;;;22.20;99.90;;;22.65;62.27;101738.75;5113164;28;20044;-67
2022/07/03 09:33:55;;;;;;;16.77;3.50;;;22.30;99.90;;;22.65;61.86;101737.91;5113083;28;20043;-67
2022/07/03 09:36:39;;;;;;;5.03;3.10;;;22.30;99.90;;;22.74;62.35;101742.91;5113112;28;20051;-66
2022/07/03 09:39:25;;;;;;;4.53;3.25;;;22.30;99.90;;;22.77;61.87;101749.06;5113190;28;20071;-66
2022/07/03 09:42:02;;;;;;;4.38;3.03;;;22.40;99.90;;;22.79;61.95;101740.88;5112916;28;20104;-67
2022/07/03 09:44:37;;;;;;;3.75;3.00;;;22.40;99.90;;;22.77;62.57;101722.06;5113064;28;20043;-65
2022/07/03 09:47:11;;;;;;;6.40;3.50;;;22.40;99.90;;;22.68;62.28;101744.03;5112709;28;20047;-67
2022/07/03 09:49:52;;;;;;;4.82;3.20;;;22.30;99.90;;;22.61;63.41;101720.94;5112889;28;20108;-67
2022/07/03 09:52:29;;;;;;;4.05;3.00;;;22.30;99.90;;;22.93;63.33;101747.50;5113197;28;20416;-67
2022/07/03 09:55:01;;;;;;;4.72;3.30;;;22.50;99.90;;;23.07;61.35;101736.13;5112933;28;20569;-68
2022/07/03 09:57:30;;;;;;;7.53;3.00;;;22.70;99.90;;;23.26;62.54;101742.50;5112926;28;20389;-68
2022/07/03 10:00:14;;;;;;;5.57;3.03;;;22.90;99.90;;;23.12;61.83;101755.69;5113542;28;20047;-68
2022/07/03 10:02:57;;;;;;;4.45;3.13;;;22.80;99.90;;;22.87;61.83;101717.16;5116788;28;20061;-68
2022/07/03 10:05:28;;;;;;;3.28;2.97;;;22.70;99.90;;;22.64;61.76;101747.81;5116876;28;20211;-67
2022/07/03 10:07:59;;;;;;;3.88;2.97;;;22.30;99.90;;;22.67;61.83;101749.47;5116673;28;20069;-68
2022/07/03 10:10:31;;;;;;;3.65;2.92;;;22.30;99.90;;;22.19;62.62;101683.06;5116626;28;20074;-66
2022/07/03 10:13:00;;;;;;;3.63;3.03;;;22.20;99.90;;;22.59;62.28;101751.63;5098549;28;20047;-67
2022/07/03 10:15:32;;;;;;;5.25;3.00;;;22.20;99.90;;;22.72;62.81;101761.88;5116565;28;20101;-67
2022/07/03 10:18:05;;;;;;;3.63;2.70;;;22.30;99.90;;;22.69;62.88;101772.75;5116483;28;20134;-66
2022/07/03 10:20:40;;;;;;;5.50;3.10;;;22.30;99.90;;;22.73;63.41;101765.41;5116528;28;20052;-65
2022/07/03 10:23:08;;;;;;;5.15;3.40;;;22.40;99.90;;;22.50;64.23;101757.31;5116350;28;20069;-64
2022/07/03 10:25:41;;;;;;;4.18;2.75;;;22.20;99.90;;;22.00;62.20;101765.56;5116438;28;20032;-65
2022/07/03 10:28:13;;;;;;;3.35;2.78;;;21.70;99.90;;;22.12;62.41;101775.88;5116629;28;20113;-65
2022/07/03 10:30:46;;;;;;;4.43;3.00;;;21.70;99.90;;;22.18;62.49;101775.63;5116786;28;20055;-65
2022/07/03 10:33:15;;;;;;;3.42;2.92;;;21.70;99.90;;;22.23;62.50;101773.66;5116159;28;20071;-65
2022/07/03 10:35:49;;;;;;;3.55;3.00;;;21.80;99.90;;;22.40;62.47;101773.00;5116471;28;20201;-65